ADDS TAF Data INFO
IDs: Format: Raw Decoded Include METARs

Data at: 0651 UTC 19 Nov 2017

KOAJ 190555Z 1906/2006 19014G23KT P6SM SCT040
  FM190900 24013G23KT P6SM VCSH SCT020 BKN035
  TEMPO 1912/1914 5SM -RA BKN020
  FM191400 31013G21KT P6SM SCT040
  FM192000 31008KT P6SM SKC AMD LTD TO CLD VIS AND WIND